sensor_id;sensor_type;location;lat;lon;timestamp;pressure;altitude;pressure_sealevel;temperature;humidity
58739;BME280;44512;53.046;18.604;2023-05-20T00:05:14;102886.80;;;14.32;59.20
58739;BME280;44512;53.046;18.604;2023-05-20T00:15:42;102884.23;;;14.31;59.27
58739;BME280;44512;53.046;18.604;2023-05-20T00:26:10;102885.25;;;14.30;59.34
58739;BME280;44512;53.046;18.604;2023-05-20T00:36:39;102883.74;;;14.27;59.46
58739;BME280;44512;53.046;18.604;2023-05-20T00:47:07;102872.85;;;14.27;59.61
58739;BME280;44512;53.046;18.604;2023-05-20T00:57:36;102872.01;;;14.27;59.76
58739;BME280;44512;53.046;18.604;2023-05-20T01:08:04;102862.46;;;14.23;59.96
58739;BME280;44512;53.046;18.604;2023-05-20T01:18:32;102870.63;;;14.23;60.14
58739;BME280;44512;53.046;18.604;2023-05-20T01:29:01;102872.67;;;14.21;60.25
58739;BME280;44512;53.046;18.604;2023-05-20T01:39:30;102864.50;;;14.21;60.40
58739;BME280;44512;53.046;18.604;2023-05-20T01:49:57;102854.63;;;14.20;60.62
58739;BME280;44512;53.046;18.604;2023-05-20T02:00:26;102856.69;;;14.18;60.76
58739;BME280;44512;53.046;18.604;2023-05-20T02:10:54;102849.55;;;14.17;60.93
58739;BME280;44512;53.046;18.604;2023-05-20T02:21:23;102854.14;;;14.16;61.03
58739;BME280;44512;53.046;18.604;2023-05-20T02:31:51;102857.02;;;14.15;61.17
58739;BME280;44512;53.046;18.604;2023-05-20T02:42:19;102854.30;;;14.15;61.28
58739;BME280;44512;53.046;18.604;2023-05-20T02:52:47;102860.78;;;14.14;61.39
58739;BME280;44512;53.046;18.604;2023-05-20T03:03:16;102851.94;;;14.12;61.47
58739;BME280;44512;53.046;18.604;2023-05-20T03:13:44;102850.21;;;14.11;61.59
58739;BME280;44512;53.046;18.604;2023-05-20T03:24:13;102852.93;;;14.11;61.64
58739;BME280;44512;53.046;18.604;2023-05-20T03:34:41;102862.13;;;14.10;61.74
58739;BME280;44512;53.046;18.604;2023-05-20T03:45:10;102869.27;;;14.11;61.85
58739;BME280;44512;53.046;18.604;2023-05-20T03:55:38;102878.47;;;14.10;61.91
58739;BME280;44512;53.046;18.604;2023-05-20T04:06:06;102888.33;;;14.11;62.06
58739;BME280;44512;53.046;18.604;2023-05-20T04:16:34;102887.48;;;14.10;62.26
58739;BME280;44512;53.046;18.604;2023-05-20T04:27:03;102882.88;;;14.11;62.43
58739;BME280;44512;53.046;18.604;2023-05-20T04:37:31;102881.90;;;14.12;62.44
58739;BME280;44512;53.046;18.604;2023-05-20T04:48:00;102880.87;;;14.13;62.52
58739;BME280;44512;53.046;18.604;2023-05-20T04:58:28;102883.23;;;14.16;62.56
58739;BME280;44512;53.046;18.604;2023-05-20T05:08:56;102891.06;;;14.19;62.53
58739;BME280;44512;53.046;18.604;2023-05-20T05:19:25;102890.73;;;14.22;62.34
58739;BME280;44512;53.046;18.604;2023-05-20T05:29:54;102893.80;;;14.27;62.16
58739;BME280;44512;53.046;18.604;2023-05-20T05:40:21;102888.69;;;14.32;62.03
58739;BME280;44512;53.046;18.604;2023-05-20T05:50:50;102895.46;;;14.36;61.83
58739;BME280;44512;53.046;18.604;2023-05-20T06:01:18;102893.25;;;14.40;61.63
58739;BME280;44512;53.046;18.604;2023-05-20T06:11:47;102895.46;;;14.44;61.50
58739;BME280;44512;53.046;18.604;2023-05-20T06:22:15;102876.74;;;14.49;61.39
58739;BME280;44512;53.046;18.604;2023-05-20T06:32:44;102879.27;;;14.59;61.21
58739;BME280;44512;53.046;18.604;2023-05-20T06:43:11;102867.15;;;14.70;61.00
58739;BME280;44512;53.046;18.604;2023-05-20T06:53:40;102868.30;;;14.83;60.92
58739;BME280;44512;53.046;18.604;2023-05-20T07:04:08;102875.91;;;14.96;60.92
58739;BME280;44512;53.046;18.604;2023-05-20T07:14:36;102868.01;;;15.09;60.88
58739;BME280;44512;53.046;18.604;2023-05-20T07:25:06;102876.26;;;15.24;60.71
58739;BME280;44512;53.046;18.604;2023-05-20T07:35:33;102862.89;;;15.37;60.52
58739;BME280;44512;53.046;18.604;2023-05-20T07:46:02;102851.21;;;15.52;60.18
58739;BME280;44512;53.046;18.604;2023-05-20T07:56:30;102851.30;;;15.67;59.78
58739;BME280;44512;53.046;18.604;2023-05-20T08:06:58;102842.48;;;15.79;59.45
58739;BME280;44512;53.046;18.604;2023-05-20T08:17:27;102830.95;;;15.92;59.15
58739;BME280;44512;53.046;18.604;2023-05-20T08:27:55;102836.61;;;16.05;59.04
58739;BME280;44512;53.046;18.604;2023-05-20T08:38:23;102830.53;;;16.18;58.84
58739;BME280;44512;53.046;18.604;2023-05-20T08:48:52;102817.25;;;16.30;58.70
58739;BME280;44512;53.046;18.604;2023-05-20T08:59:20;102804.80;;;16.42;58.35
58739;BME280;44512;53.046;18.604;2023-05-20T09:09:48;102809.61;;;16.55;57.97
58739;BME280;44512;53.046;18.604;2023-05-20T09:20:20;102800.09;;;16.65;57.74
58739;BME280;44512;53.046;18.604;2023-05-20T09:30:48;102811.20;;;16.79;57.78
58739;BME280;44512;53.046;18.604;2023-05-20T09:41:13;102797.70;;;16.92;57.88
58739;BME280;44512;53.046;18.604;2023-05-20T09:51:42;102787.94;;;17.04;57.74
58739;BME280;44512;53.046;18.604;2023-05-20T10:02:10;102789.99;;;17.17;57.50
58739;BME280;44512;53.046;18.604;2023-05-20T10:23:07;102780.62;;;17.48;57.80
58739;BME280;44512;53.046;18.604;2023-05-20T10:33:41;102769.55;;;17.62;57.45
58739;BME280;44512;53.046;18.604;2023-05-20T10:44:05;102752.89;;;17.79;57.79
58739;BME280;44512;53.046;18.604;2023-05-20T11:05:01;102748.89;;;18.09;57.49
58739;BME280;44512;53.046;18.604;2023-05-20T11:15:30;102729.37;;;18.26;57.46
58739;BME280;44512;53.046;18.604;2023-05-20T11:25:57;102717.01;;;18.43;57.12
58739;BME280;44512;53.046;18.604;2023-05-20T11:36:26;102707.36;;;18.60;56.87
58739;BME280;44512;53.046;18.604;2023-05-20T11:46:59;102708.68;;;18.71;56.72
58739;BME280;44512;53.046;18.604;2023-05-20T11:57:22;102722.28;;;18.92;56.48
58739;BME280;44512;53.046;18.604;2023-05-20T12:07:50;102718.92;;;19.04;56.16
58739;BME280;44512;53.046;18.604;2023-05-20T12:18:19;102718.08;;;19.16;56.06
58739;BME280;44512;53.046;18.604;2023-05-20T12:28:47;102707.12;;;19.30;55.82
58739;BME280;44512;53.046;18.604;2023-05-20T12:39:15;102698.24;;;19.41;55.88
58739;BME280;44512;53.046;18.604;2023-05-20T12:49:44;102675.41;;;19.53;56.06
58739;BME280;44512;53.046;18.604;2023-05-20T13:00:13;102671.63;;;19.74;55.84
58739;BME280;44512;53.046;18.604;2023-05-20T13:10:41;102665.86;;;19.96;55.50
58739;BME280;44512;53.046;18.604;2023-05-20T13:21:09;102655.45;;;20.11;55.29
58739;BME280;44512;53.046;18.604;2023-05-20T13:31:38;102653.28;;;20.26;54.90
58739;BME280;44512;53.046;18.604;2023-05-20T13:42:06;102645.97;;;20.45;54.73
58739;BME280;44512;53.046;18.604;2023-05-20T13:52:34;102635.12;;;20.64;54.17
58739;BME280;44512;53.046;18.604;2023-05-20T14:03:02;102625.48;;;20.79;53.82
58739;BME280;44512;53.046;18.604;2023-05-20T14:13:31;102612.85;;;20.97;53.67
58739;BME280;44512;53.046;18.604;2023-05-20T14:23:59;102600.43;;;21.13;53.29
58739;BME280;44512;53.046;18.604;2023-05-20T14:34:27;102595.38;;;21.35;53.00
58739;BME280;44512;53.046;18.604;2023-05-20T14:49:31;102571.98;;;21.80;52.45
58739;BME280;44512;53.046;18.604;2023-05-20T14:59:33;102573.46;;;22.31;51.38
58739;BME280;44512;53.046;18.604;2023-05-20T15:09:34;102562.09;;;22.81;50.30
58739;BME280;44512;53.046;18.604;2023-05-20T15:19:35;102557.30;;;23.35;49.42
58739;BME280;44512;53.046;18.604;2023-05-20T15:29:37;102552.37;;;23.73;48.33
58739;BME280;44512;53.046;18.604;2023-05-20T15:39:38;102538.77;;;23.71;47.80
58739;BME280;44512;53.046;18.604;2023-05-20T15:49:40;102542.26;;;23.67;47.89
58739;BME280;44512;53.046;18.604;2023-05-20T15:59:41;102534.91;;;23.72;47.73
58739;BME280;44512;53.046;18.604;2023-05-20T16:09:42;102529.12;;;23.85;47.53
58739;BME280;44512;53.046;18.604;2023-05-20T16:19:44;102520.27;;;24.00;47.36
58739;BME280;44512;53.046;18.604;2023-05-20T16:29:45;102513.30;;;24.26;47.04
58739;BME280;44512;53.046;18.604;2023-05-20T16:39:47;102506.97;;;24.42;46.59
58739;BME280;44512;53.046;18.604;2023-05-20T16:49:48;102510.44;;;24.66;46.15
58739;BME280;44512;53.046;18.604;2023-05-20T16:59:49;102505.63;;;24.79;45.56
58739;BME280;44512;53.046;18.604;2023-05-20T17:09:51;102525.28;;;24.77;45.55
58739;BME280;44512;53.046;18.604;2023-05-20T17:19:52;102518.88;;;24.60;45.44
58739;BME280;44512;53.046;18.604;2023-05-20T17:29:54;102515.28;;;24.42;45.89
58739;BME280;44512;53.046;18.604;2023-05-20T17:39:55;102524.37;;;24.26;46.35
58739;BME280;44512;53.046;18.604;2023-05-20T17:49:57;102504.14;;;24.09;46.80
58739;BME280;44512;53.046;18.604;2023-05-20T18:00:02;102499.73;;;23.96;47.41
58739;BME280;44512;53.046;18.604;2023-05-20T18:10:06;102497.51;;;23.81;47.97
58739;BME280;44512;53.046;18.604;2023-05-20T18:20:09;102496.11;;;23.67;48.63
58739;BME280;44512;53.046;18.604;2023-05-20T18:30:10;102502.99;;;23.53;49.08
58739;BME280;44512;53.046;18.604;2023-05-20T18:40:35;102483.79;;;23.34;49.46
58739;BME280;44512;53.046;18.604;2023-05-20T18:51:03;102487.30;;;23.18;49.87
58739;BME280;44512;53.046;18.604;2023-05-20T19:01:31;102486.38;;;23.01;50.06
58739;BME280;44512;53.046;18.604;2023-05-20T19:12:00;102487.29;;;22.83;50.35
58739;BME280;44512;53.046;18.604;2023-05-20T19:22:28;102498.68;;;22.63;50.57
58739;BME280;44512;53.046;18.604;2023-05-20T19:32:56;102494.10;;;22.45;50.86
58739;BME280;44512;53.046;18.604;2023-05-20T19:43:24;102496.92;;;22.27;51.20
58739;BME280;44512;53.046;18.604;2023-05-20T19:53:53;102498.65;;;22.09;51.60
58739;BME280;44512;53.046;18.604;2023-05-20T20:04:21;102487.45;;;21.93;52.07
58739;BME280;44512;53.046;18.604;2023-05-20T20:14:50;102501.24;;;21.74;52.47
58739;BME280;44512;53.046;18.604;2023-05-20T20:25:18;102502.73;;;21.58;52.92
58739;BME280;44512;53.046;18.604;2023-05-20T20:35:46;102495.34;;;21.41;53.23
58739;BME280;44512;53.046;18.604;2023-05-20T20:46:14;102503.30;;;21.24;53.47
58739;BME280;44512;53.046;18.604;2023-05-20T20:56:43;102507.49;;;21.08;53.78
58739;BME280;44512;53.046;18.604;2023-05-20T21:07:11;102498.76;;;20.93;53.98
58739;BME280;44512;53.046;18.604;2023-05-20T21:17:40;102491.92;;;20.77;54.08
58739;BME280;44512;53.046;18.604;2023-05-20T21:28:08;102497.77;;;20.62;54.23
58739;BME280;44512;53.046;18.604;2023-05-20T21:38:36;102499.16;;;20.46;54.34
58739;BME280;44512;53.046;18.604;2023-05-20T21:49:05;102504.75;;;20.33;54.41
58739;BME280;44512;53.046;18.604;2023-05-20T21:59:33;102495.49;;;20.21;54.48
58739;BME280;44512;53.046;18.604;2023-05-20T22:10:01;102498.12;;;20.09;54.60
58739;BME280;44512;53.046;18.604;2023-05-20T22:20:30;102497.34;;;20.02;54.63
58739;BME280;44512;53.046;18.604;2023-05-20T22:30:58;102499.48;;;19.93;54.69
58739;BME280;44512;53.046;18.604;2023-05-20T22:41:26;102493.19;;;19.86;54.71
58739;BME280;44512;53.046;18.604;2023-05-20T22:51:55;102499.77;;;19.78;54.66
58739;BME280;44512;53.046;18.604;2023-05-20T23:02:24;102500.04;;;19.70;54.66
58739;BME280;44512;53.046;18.604;2023-05-20T23:12:51;102499.44;;;19.62;54.70
58739;BME280;44512;53.046;18.604;2023-05-20T23:23:20;102499.63;;;19.53;54.70
58739;BME280;44512;53.046;18.604;2023-05-20T23:33:48;102497.98;;;19.46;54.56
58739;BME280;44512;53.046;18.604;2023-05-20T23:44:17;102500.54;;;19.41;54.40
58739;BME280;44512;53.046;18.604;2023-05-20T23:54:45;102499.72;;;19.34;54.30
